Time;durP1;ratioP1;P1;durP2;ratioP2;P2;SDS_P1;SDS_P2;PMS_P1;PMS_P2;Temp;Humidity;BMP_temperature;BMP_pressure;BME280_temperature;BME280_humidity;BME280_pressure;Samples;Min_cycle;Max_cycle;Signal;HPM_P1;HPM_P2
2021/10/26 00:00:12;;;;;;;10.65;5.55;;;;;;;;;;5026805;28;20511;-64
2021/10/26 00:02:41;;;;;;;12.88;4.85;;;;;;;;;;5029878;28;20053;-64
2021/10/26 00:05:09;;;;;;;8.75;4.82;;;;;;;;;;5027211;28;20056;-69
2021/10/26 00:07:37;;;;;;;9.68;4.78;;;;;;;;;;5027882;28;20050;-67
2021/10/26 00:10:07;;;;;;;10.48;5.35;;;;;;;;;;5028111;28;20055;-64
2021/10/26 00:12:36;;;;;;;9.13;5.07;;;;;;;;;;5029441;28;20092;-64
2021/10/26 00:15:05;;;;;;;8.43;4.65;;;;;;;;;;5025749;28;20053;-69
2021/10/26 00:17:33;;;;;;;12.45;5.18;;;;;;;;;;5027701;28;20132;-68
2021/10/26 00:20:02;;;;;;;8.63;4.72;;;;;;;;;;5021755;28;20056;-65
2021/10/26 00:22:30;;;;;;;8.45;4.95;;;;;;;;;;5026249;28;20061;-64
2021/10/26 00:24:58;;;;;;;8.23;4.22;;;;;;;;;;5028927;28;20068;-65
2021/10/26 00:27:28;;;;;;;8.75;4.75;;;;;;;;;;5026948;28;20132;-66
2021/10/26 00:29:56;;;;;;;8.98;4.47;;;;;;;;;;5027572;28;20416;-65
2021/10/26 00:32:24;;;;;;;9.05;4.50;;;;;;;;;;5029074;28;20049;-64
2021/10/26 00:34:53;;;;;;;8.52;4.38;;;;;;;;;;5025172;28;20521;-65
2021/10/26 00:37:21;;;;;;;7.30;4.38;;;;;;;;;;5028153;28;20045;-66
2021/10/26 00:39:49;;;;;;;7.90;4.25;;;;;;;;;;5028176;28;20057;-65
2021/10/26 00:42:18;;;;;;;9.30;4.18;;;;;;;;;;5028750;28;20141;-65
2021/10/26 00:44:47;;;;;;;7.70;4.43;;;;;;;;;;5028101;28;20055;-65
2021/10/26 00:47:16;;;;;;;9.38;4.38;;;;;;;;;;5027946;28;20480;-65
2021/10/26 00:49:44;;;;;;;8.80;3.97;;;;;;;;;;5028609;28;20049;-64
2021/10/26 00:52:13;;;;;;;11.95;4.30;;;;;;;;;;5027044;28;20060;-64
2021/10/26 00:54:41;;;;;;;9.45;4.28;;;;;;;;;;5028561;28;20050;-64
2021/10/26 00:57:10;;;;;;;8.07;3.75;;;;;;;;;;5028682;28;20073;-64
2021/10/26 00:59:38;;;;;;;8.15;4.47;;;;;;;;;;5026988;28;20056;-65
2021/10/26 01:02:08;;;;;;;11.20;4.22;;;;;;;;;;5030894;28;20073;-68
2021/10/26 01:04:36;;;;;;;7.93;4.40;;;;;;;;;;5026216;28;20076;-68
2021/10/26 01:07:05;;;;;;;6.78;3.55;;;;;;;;;;5021765;28;20049;-68
2021/10/26 01:09:33;;;;;;;9.77;3.95;;;;;;;;;;5028499;28;20050;-64
2021/10/26 01:12:02;;;;;;;7.60;3.50;;;;;;;;;;5027016;28;20090;-64
2021/10/26 01:14:30;;;;;;;5.85;3.67;;;;;;;;;;5028160;28;20051;-67
2021/10/26 01:17:03;;;;;;;7.63;3.58;;;;;;;;;;5027123;28;20120;-64
2021/10/26 01:19:42;;;;;;;7.00;3.95;;;;;;;;;;5028676;28;20060;-64
2021/10/26 01:22:11;;;;;;;6.75;4.03;;;;;;;;;;5027606;28;20077;-66
2021/10/26 01:24:39;;;;;;;8.85;4.40;;;;;;;;;;5026817;28;20046;-66
2021/10/26 01:27:07;;;;;;;6.47;3.83;;;;;;;;;;4997479;28;20091;-67
2021/10/26 01:29:37;;;;;;;6.65;3.40;;;;;;;;;;336704;28;10022850;-67
2021/10/26 01:32:06;;;;;;;6.45;3.75;;;;;;;;;;5027425;28;20280;-64
2021/10/26 01:34:36;;;;;;;9.18;4.03;;;;;;;;;;5024160;28;20180;-64
2021/10/26 01:37:05;;;;;;;8.50;4.40;;;;;;;;;;5026131;28;20071;-65
2021/10/26 01:39:34;;;;;;;7.85;3.83;;;;;;;;;;5029465;28;20079;-64
2021/10/26 01:42:02;;;;;;;6.78;3.58;;;;;;;;;;5029765;28;20083;-65
2021/10/26 01:44:31;;;;;;;5.63;3.40;;;;;;;;;;5029581;28;20737;-66
2021/10/26 01:46:59;;;;;;;7.20;4.15;;;;;;;;;;5031167;28;20547;-65
2021/10/26 01:49:28;;;;;;;6.65;3.90;;;;;;;;;;5032356;28;20076;-64
2021/10/26 01:51:58;;;;;;;7.20;3.28;;;;;;;;;;5031970;28;20056;-66
2021/10/26 01:54:26;;;;;;;7.40;3.50;;;;;;;;;;5031363;28;20052;-66
2021/10/26 01:56:54;;;;;;;7.65;3.40;;;;;;;;;;5030918;28;20087;-65
2021/10/26 01:59:24;;;;;;;5.90;3.40;;;;;;;;;;5031013;28;20085;-64
2021/10/26 02:01:52;;;;;;;6.93;3.70;;;;;;;;;;5029544;28;20045;-64
2021/10/26 02:04:21;;;;;;;5.68;2.63;;;;;;;;;;5029336;28;20053;-65
2021/10/26 02:06:49;;;;;;;3.80;2.88;;;;;;;;;;5032678;28;20072;-64
2021/10/26 02:09:19;;;;;;;7.72;3.50;;;;;;;;;;5032961;28;20117;-65
2021/10/26 02:11:47;;;;;;;7.00;3.20;;;;;;;;;;5027372;28;20096;-67
2021/10/26 02:14:15;;;;;;;5.68;3.17;;;;;;;;;;5031463;28;20118;-64
2021/10/26 02:16:44;;;;;;;10.25;3.40;;;;;;;;;;5031061;28;20136;-69
2021/10/26 02:19:12;;;;;;;5.38;2.88;;;;;;;;;;5031685;28;20485;-68
2021/10/26 02:21:40;;;;;;;5.75;2.72;;;;;;;;;;5028918;28;20087;-65
2021/10/26 02:24:09;;;;;;;7.53;3.38;;;;;;;;;;5031852;28;20140;-64
2021/10/26 02:26:38;;;;;;;4.38;3.05;;;;;;;;;;5030337;28;20076;-67
2021/10/26 02:29:07;;;;;;;3.95;2.92;;;;;;;;;;5031977;28;20072;-67
2021/10/26 02:31:35;;;;;;;6.43;3.50;;;;;;;;;;5028501;28;20047;-66
2021/10/26 02:34:03;;;;;;;4.60;3.13;;;;;;;;;;5031604;28;20037;-65
2021/10/26 02:36:31;;;;;;;7.85;3.00;;;;;;;;;;5029745;28;20566;-68
2021/10/26 02:39:00;;;;;;;6.70;3.60;;;;;;;;;;5031614;28;20117;-64
2021/10/26 02:41:28;;;;;;;7.82;3.08;;;;;;;;;;5029058;28;20060;-64
2021/10/26 02:43:58;;;;;;;5.88;2.90;;;;;;;;;;5031623;28;20089;-65
2021/10/26 02:46:26;;;;;;;6.70;3.00;;;;;;;;;;5028201;28;20049;-65
2021/10/26 02:48:54;;;;;;;5.90;2.90;;;;;;;;;;5031887;28;20056;-68
2021/10/26 02:51:23;;;;;;;6.60;3.40;;;;;;;;;;5029053;28;20073;-67
2021/10/26 02:53:51;;;;;;;7.30;2.95;;;;;;;;;;5029705;28;20045;-64
2021/10/26 02:56:19;;;;;;;4.40;2.60;;;;;;;;;;5028386;28;20089;-65
2021/10/26 02:58:47;;;;;;;6.82;2.80;;;;;;;;;;5030991;28;20049;-68
2021/10/26 03:01:17;;;;;;;7.95;3.60;;;;;;;;;;5028183;28;20172;-66
2021/10/26 03:03:46;;;;;;;9.93;3.75;;;;;;;;;;5030653;28;20047;-68
2021/10/26 03:06:14;;;;;;;10.25;3.65;;;;;;;;;;5029462;28;20137;-64
2021/10/26 03:08:42;;;;;;;6.28;3.20;;;;;;;;;;5027800;28;20136;-66
2021/10/26 03:11:10;;;;;;;5.57;3.05;;;;;;;;;;5030330;28;20045;-64
2021/10/26 03:13:39;;;;;;;8.20;3.25;;;;;;;;;;5029631;28;20596;-65
2021/10/26 03:16:08;;;;;;;8.98;3.70;;;;;;;;;;5037983;28;20121;-65
2021/10/26 03:18:41;;;;;;;8.40;3.30;;;;;;;;;;5028182;28;20128;-67
2021/10/26 03:21:09;;;;;;;5.68;2.70;;;;;;;;;;5027395;28;20144;-65
2021/10/26 03:23:37;;;;;;;8.80;2.85;;;;;;;;;;5027927;28;20067;-67
2021/10/26 03:26:06;;;;;;;5.43;2.88;;;;;;;;;;5028881;28;20107;-65
2021/10/26 03:28:34;;;;;;;9.93;3.00;;;;;;;;;;5022445;28;20052;-65
2021/10/26 03:31:04;;;;;;;5.28;2.72;;;;;;;;;;5029220;28;20075;-65
2021/10/26 03:33:32;;;;;;;5.43;2.83;;;;;;;;;;5028356;28;20056;-65
2021/10/26 03:36:04;;;;;;;6.15;2.80;;;;;;;;;;5030111;28;20132;-65
2021/10/26 03:38:34;;;;;;;4.57;2.78;;;;;;;;;;5028103;28;20080;-70
2021/10/26 03:41:02;;;;;;;4.35;2.70;;;;;;;;;;5042111;28;20133;-65
2021/10/26 03:43:30;;;;;;;5.32;2.88;;;;;;;;;;5028139;28;20046;-69
2021/10/26 03:45:58;;;;;;;4.97;3.05;;;;;;;;;;5031054;28;20050;-67
2021/10/26 03:48:27;;;;;;;4.90;2.72;;;;;;;;;;5025587;28;20554;-64
2021/10/26 03:50:55;;;;;;;5.63;2.88;;;;;;;;;;5030478;28;20092;-64
2021/10/26 03:53:27;;;;;;;5.78;2.70;;;;;;;;;;5027678;28;20076;-65
2021/10/26 03:55:55;;;;;;;6.38;2.97;;;;;;;;;;5028697;28;20492;-65
2021/10/26 03:58:24;;;;;;;7.20;2.90;;;;;;;;;;5027272;28;20493;-64
2021/10/26 04:00:52;;;;;;;6.53;2.90;;;;;;;;;;5027160;28;20519;-65
2021/10/26 04:03:20;;;;;;;5.38;2.85;;;;;;;;;;5023072;28;20049;-65
2021/10/26 04:05:58;;;;;;;7.45;3.15;;;;;;;;;;5030725;28;20080;-66
2021/10/26 04:08:31;;;;;;;5.10;3.25;;;;;;;;;;5025855;28;20045;-65
2021/10/26 04:11:02;;;;;;;4.30;2.58;;;;;;;;;;5029164;28;20055;-65
2021/10/26 04:13:30;;;;;;;5.25;3.03;;;;;;;;;;5025391;28;20132;-64
2021/10/26 04:15:59;;;;;;;7.40;3.15;;;;;;;;;;5030684;28;20085;-67
2021/10/26 04:18:28;;;;;;;3.72;2.35;;;;;;;;;;5027429;28;20049;-64
2021/10/26 04:20:56;;;;;;;4.18;2.40;;;;;;;;;;5025762;28;20412;-66
2021/10/26 04:23:25;;;;;;;6.25;2.47;;;;;;;;;;5026397;28;20045;-65
2021/10/26 04:25:54;;;;;;;8.63;2.60;;;;;;;;;;5027909;28;20156;-65
2021/10/26 04:28:23;;;;;;;5.97;2.97;;;;;;;;;;5023228;28;20067;-64
2021/10/26 04:30:53;;;;;;;3.97;2.38;;;;;;;;;;5023037;28;20527;-66
2021/10/26 04:33:21;;;;;;;5.57;2.90;;;;;;;;;;5021540;28;20069;-69
2021/10/26 04:35:49;;;;;;;5.15;2.10;;;;;;;;;;5021945;28;20137;-65
2021/10/26 04:38:18;;;;;;;5.07;2.35;;;;;;;;;;5022562;28;20400;-66
2021/10/26 04:40:46;;;;;;;5.55;2.33;;;;;;;;;;5022121;28;20127;-65
2021/10/26 04:43:17;;;;;;;4.72;2.22;;;;;;;;;;5026378;28;20144;-67
2021/10/26 04:45:46;;;;;;;4.57;2.35;;;;;;;;;;5020243;28;20049;-66
2021/10/26 04:48:19;;;;;;;4.93;2.78;;;;;;;;;;5030301;28;20067;-65
2021/10/26 04:50:47;;;;;;;5.22;2.70;;;;;;;;;;5023644;28;20046;-67
2021/10/26 04:53:16;;;;;;;5.00;2.47;;;;;;;;;;5012401;28;20061;-66
2021/10/26 04:55:44;;;;;;;5.28;2.67;;;;;;;;;;5018266;28;20050;-65
2021/10/26 04:58:13;;;;;;;6.28;2.75;;;;;;;;;;5018924;28;20080;-67
2021/10/26 05:00:42;;;;;;;4.53;2.70;;;;;;;;;;5026078;28;20053;-65
2021/10/26 05:03:11;;;;;;;3.95;2.72;;;;;;;;;;5024329;28;20067;-65
2021/10/26 05:05:39;;;;;;;3.95;2.30;;;;;;;;;;5020005;28;20076;-70
2021/10/26 05:08:08;;;;;;;5.32;2.53;;;;;;;;;;5019206;28;20053;-68
2021/10/26 05:10:36;;;;;;;5.32;2.60;;;;;;;;;;5018703;28;20065;-66
2021/10/26 05:13:05;;;;;;;6.90;2.33;;;;;;;;;;5019542;28;20136;-66
2021/10/26 05:15:34;;;;;;;6.50;2.72;;;;;;;;;;5023354;28;20073;-68
2021/10/26 05:18:03;;;;;;;5.38;2.78;;;;;;;;;;5029243;28;20049;-67
2021/10/26 05:20:34;;;;;;;6.55;2.38;;;;;;;;;;5023971;28;20428;-67
2021/10/26 05:23:03;;;;;;;4.55;2.30;;;;;;;;;;5026400;28;20049;-65
2021/10/26 05:25:31;;;;;;;5.03;2.15;;;;;;;;;;5026566;28;20390;-65
2021/10/26 05:28:00;;;;;;;3.80;2.72;;;;;;;;;;5020426;28;20517;-65
2021/10/26 05:30:28;;;;;;;4.35;2.30;;;;;;;;;;5024638;28;20148;-65
2021/10/26 05:32:56;;;;;;;9.15;2.95;;;;;;;;;;5018152;28;20141;-65
2021/10/26 05:35:26;;;;;;;6.93;2.92;;;;;;;;;;5024973;28;20088;-67
2021/10/26 05:37:54;;;;;;;3.95;2.17;;;;;;;;;;5016844;28;20057;-69
2021/10/26 05:40:23;;;;;;;4.80;2.50;;;;;;;;;;5027395;28;20053;-68
2021/10/26 05:42:51;;;;;;;4.97;2.30;;;;;;;;;;5025302;28;20093;-65
2021/10/26 05:45:19;;;;;;;7.57;2.95;;;;;;;;;;5019480;28;20072;-65
2021/10/26 05:47:50;;;;;;;3.70;2.38;;;;;;;;;;5025800;28;20053;-66
2021/10/26 05:50:18;;;;;;;3.63;2.20;;;;;;;;;;5025354;28;20103;-69
2021/10/26 05:52:48;;;;;;;6.90;2.33;;;;;;;;;;5026703;28;20089;-70
2021/10/26 05:55:16;;;;;;;3.97;2.25;;;;;;;;;;5028033;28;20049;-67
2021/10/26 05:57:44;;;;;;;4.75;2.13;;;;;;;;;;5028388;28;20128;-65
2021/10/26 06:00:13;;;;;;;6.38;2.33;;;;;;;;;;5022689;28;20076;-67
2021/10/26 06:02:41;;;;;;;7.18;2.88;;;;;;;;;;5025550;28;20049;-66
2021/10/26 06:05:11;;;;;;;4.60;2.17;;;;;;;;;;5024768;28;20045;-68
2021/10/26 06:07:40;;;;;;;8.35;2.78;;;;;;;;;;5027716;28;20478;-66
2021/10/26 06:10:10;;;;;;;3.55;2.20;;;;;;;;;;5026393;28;20470;-68
2021/10/26 06:12:43;;;;;;;5.72;2.42;;;;;;;;;;5027379;28;20041;-68
2021/10/26 06:15:11;;;;;;;5.35;2.58;;;;;;;;;;5026971;28;20100;-68
2021/10/26 06:17:40;;;;;;;3.45;2.38;;;;;;;;;;5020969;28;20088;-68
2021/10/26 06:20:10;;;;;;;5.85;2.80;;;;;;;;;;5025637;28;20408;-67
2021/10/26 06:22:39;;;;;;;8.52;2.85;;;;;;;;;;5011796;28;21531;-70
2021/10/26 06:25:08;;;;;;;6.55;2.83;;;;;;;;;;5015659;28;20056;-68
2021/10/26 06:27:37;;;;;;;8.20;2.80;;;;;;;;;;5022894;28;20624;-67
2021/10/26 06:30:06;;;;;;;9.20;2.42;;;;;;;;;;5027213;28;20633;-66
2021/10/26 06:32:34;;;;;;;9.13;2.65;;;;;;;;;;5023576;28;20361;-65
2021/10/26 06:35:10;;;;;;;5.90;2.40;;;;;;;;;;5029179;28;20132;-71
2021/10/26 06:37:40;;;;;;;7.50;2.40;;;;;;;;;;5029270;28;20552;-69
2021/10/26 06:40:09;;;;;;;3.55;2.03;;;;;;;;;;5029374;28;20054;-66
2021/10/26 06:42:39;;;;;;;6.03;2.40;;;;;;;;;;5029457;28;20440;-70
2021/10/26 06:45:09;;;;;;;5.88;2.53;;;;;;;;;;5027520;28;20057;-68
2021/10/26 06:47:38;;;;;;;7.70;2.83;;;;;;;;;;5024280;28;20334;-69
2021/10/26 06:50:07;;;;;;;3.40;2.20;;;;;;;;;;5029550;28;20064;-70
2021/10/26 06:52:36;;;;;;;9.40;2.70;;;;;;;;;;5019250;28;20044;-68
2021/10/26 06:55:05;;;;;;;5.93;2.33;;;;;;;;;;5029129;28;20128;-66
2021/10/26 06:57:33;;;;;;;11.57;3.58;;;;;;;;;;5029079;28;20152;-65
2021/10/26 07:00:05;;;;;;;12.82;3.38;;;;;;;;;;5029476;28;20104;-66
2021/10/26 07:02:34;;;;;;;7.05;2.40;;;;;;;;;;5028524;28;20092;-70
2021/10/26 07:05:07;;;;;;;6.78;2.67;;;;;;;;;;5029142;28;20068;-67
2021/10/26 07:07:35;;;;;;;5.93;3.15;;;;;;;;;;5024991;28;20471;-67
2021/10/26 07:10:04;;;;;;;3.95;2.88;;;;;;;;;;5028191;28;20885;-66
2021/10/26 07:12:34;;;;;;;3.83;2.13;;;;;;;;;;5027639;28;20044;-65
2021/10/26 07:15:07;;;;;;;9.00;3.28;;;;;;;;;;5027989;28;20475;-68
2021/10/26 07:17:36;;;;;;;9.80;2.42;;;;;;;;;;5029048;28;20568;-67
2021/10/26 07:20:05;;;;;;;5.85;2.70;;;;;;;;;;5027698;28;20225;-66
2021/10/26 07:22:34;;;;;;;8.93;2.88;;;;;;;;;;5029016;28;20049;-65
2021/10/26 07:25:05;;;;;;;6.10;3.25;;;;;;;;;;5026328;28;20103;-68
2021/10/26 07:27:34;;;;;;;5.60;2.78;;;;;;;;;;5020274;28;20073;-68
2021/10/26 07:30:05;;;;;;;4.40;2.30;;;;;;;;;;5023700;28;20041;-67
2021/10/26 07:32:34;;;;;;;4.72;2.50;;;;;;;;;;5023297;28;20140;-69
2021/10/26 07:35:03;;;;;;;4.65;2.65;;;;;;;;;;5028615;28;20146;-67
2021/10/26 07:37:34;;;;;;;8.90;2.63;;;;;;;;;;5026990;28;20050;-65
2021/10/26 07:40:04;;;;;;;8.88;3.55;;;;;;;;;;5024045;28;20049;-69
2021/10/26 07:42:32;;;;;;;6.78;2.80;;;;;;;;;;5027128;28;20095;-67
2021/10/26 07:45:01;;;;;;;6.22;2.63;;;;;;;;;;5025041;28;20459;-65
2021/10/26 07:47:31;;;;;;;6.50;3.38;;;;;;;;;;5027795;28;20107;-65
2021/10/26 07:49:59;;;;;;;12.88;3.72;;;;;;;;;;5026542;28;20141;-70
2021/10/26 07:52:28;;;;;;;5.60;2.92;;;;;;;;;;5025764;28;20586;-65
2021/10/26 07:54:57;;;;;;;8.07;4.03;;;;;;;;;;5030551;28;20056;-67
2021/10/26 07:57:27;;;;;;;8.60;3.60;;;;;;;;;;5030092;28;20049;-65
2021/10/26 07:59:55;;;;;;;10.43;3.88;;;;;;;;;;5023801;28;20045;-65
2021/10/26 08:02:25;;;;;;;10.18;4.63;;;;;;;;;;5022392;28;20374;-65
2021/10/26 08:04:56;;;;;;;10.80;4.95;;;;;;;;;;5029180;28;20107;-67
2021/10/26 08:07:24;;;;;;;12.02;5.13;;;;;;;;;;5037447;28;20045;-66
2021/10/26 08:09:54;;;;;;;14.18;4.88;;;;;;;;;;5027081;28;20537;-66
2021/10/26 08:12:23;;;;;;;13.25;5.60;;;;;;;;;;5026735;28;20107;-64
2021/10/26 08:14:52;;;;;;;9.57;5.13;;;;;;;;;;5027575;28;20139;-68
2021/10/26 08:17:20;;;;;;;14.32;5.25;;;;;;;;;;5026936;28;20053;-65
2021/10/26 08:19:49;;;;;;;10.10;5.20;;;;;;;;;;5023633;28;20053;-65
2021/10/26 08:22:20;;;;;;;13.90;5.65;;;;;;;;;;5025364;28;20053;-65
2021/10/26 08:24:51;;;;;;;12.38;5.22;;;;;;;;;;5020109;28;20077;-65
2021/10/26 08:27:20;;;;;;;15.23;5.72;;;;;;;;;;5026802;28;20452;-65
2021/10/26 08:29:53;;;;;;;10.77;5.07;;;;;;;;;;5027128;28;20088;-65
2021/10/26 08:32:43;;;;;;;15.80;5.57;;;;;;;;;;5025368;28;20057;-65
2021/10/26 08:35:26;;;;;;;17.10;5.85;;;;;;;;;;5023320;28;20041;-65
2021/10/26 08:37:58;;;;;;;13.20;4.88;;;;;;;;;;5027339;28;20491;-66
2021/10/26 08:40:34;;;;;;;10.23;4.70;;;;;;;;;;5021106;28;20050;-66
2021/10/26 08:43:06;;;;;;;11.85;4.32;;;;;;;;;;5026066;28;20068;-65
2021/10/26 08:45:35;;;;;;;10.23;4.85;;;;;;;;;;5027795;28;20053;-66
2021/10/26 08:48:05;;;;;;;9.60;4.55;;;;;;;;;;5026354;28;20041;-69
2021/10/26 08:50:36;;;;;;;9.52;4.78;;;;;;;;;;5021537;28;20128;-65
2021/10/26 08:53:07;;;;;;;12.35;5.70;;;;;;;;;;5026682;28;20128;-68
2021/10/26 08:55:37;;;;;;;15.40;6.45;;;;;;;;;;5020873;28;20052;-66
2021/10/26 08:58:06;;;;;;;12.25;5.68;;;;;;;;;;5026384;28;20057;-66
2021/10/26 09:00:36;;;;;;;15.95;6.55;;;;;;;;;;5024271;28;20053;-65
2021/10/26 09:03:17;;;;;;;18.23;5.75;;;;;;;;;;5025676;28;20068;-65
2021/10/26 09:05:46;;;;;;;12.95;5.90;;;;;;;;;;5027061;28;20088;-69
2021/10/26 09:08:19;;;;;;;11.60;5.45;;;;;;;;;;5025919;28;20468;-68
2021/10/26 09:10:49;;;;;;;11.32;5.68;;;;;;;;;;5024811;28;20057;-65
2021/10/26 09:18:50;;;;;;;13.02;6.32;;;;;;;;;;5024407;28;20041;-63
2021/10/26 09:21:28;;;;;;;17.08;6.88;;;;;;;;;;5024874;28;20551;-63
2021/10/26 09:23:59;;;;;;;16.30;6.65;;;;;;;;;;5025620;28;20111;-64
2021/10/26 09:26:43;;;;;;;18.10;6.40;;;;;;;;;;5024979;28;20045;-66
2021/10/26 09:29:12;;;;;;;11.52;5.88;;;;;;;;;;5023976;28;20053;-63
2021/10/26 09:31:41;;;;;;;12.63;5.70;;;;;;;;;;5025650;28;20236;-64
2021/10/26 09:34:12;;;;;;;13.73;6.00;;;;;;;;;;5026953;28;20045;-66
2021/10/26 09:36:41;;;;;;;13.55;6.00;;;;;;;;;;5020640;28;20085;-63
2021/10/26 09:39:17;;;;;;;13.05;6.75;;;;;;;;;;5025901;28;20050;-65
2021/10/26 09:42:02;;;;;;;18.85;7.05;;;;;;;;;;5025583;28;20161;-64
2021/10/26 09:44:31;;;;;;;16.92;6.30;;;;;;;;;;5026310;28;20590;-62
2021/10/26 09:47:02;;;;;;;18.17;6.65;;;;;;;;;;5027326;28;20049;-62
2021/10/26 09:49:32;;;;;;;17.77;6.88;;;;;;;;;;5025511;28;20081;-63
2021/10/26 09:52:17;;;;;;;17.52;7.30;;;;;;;;;;5019202;28;20051;-65
2021/10/26 09:54:50;;;;;;;14.10;6.37;;;;;;;;;;5022490;28;20153;-67
2021/10/26 09:57:20;;;;;;;16.55;6.63;;;;;;;;;;5026068;28;20054;-65
2021/10/26 09:59:50;;;;;;;12.90;6.43;;;;;;;;;;5030601;28;20065;-63
2021/10/26 10:02:22;;;;;;;15.15;6.80;;;;;;;;;;5026470;28;20118;-63
2021/10/26 10:05:02;;;;;;;13.43;6.72;;;;;;;;;;5011920;28;20651;-63
2021/10/26 10:07:32;;;;;;;15.13;6.97;;;;;;;;;;5028897;28;20061;-62
2021/10/26 10:10:04;;;;;;;15.55;7.28;;;;;;;;;;5019583;28;20107;-63
2021/10/26 10:12:32;;;;;;;16.70;6.80;;;;;;;;;;5023922;28;20270;-64
2021/10/26 10:15:05;;;;;;;14.25;6.85;;;;;;;;;;5029599;28;20103;-62
2021/10/26 10:17:35;;;;;;;13.80;6.22;;;;;;;;;;5030377;28;20080;-63
2021/10/26 10:20:06;;;;;;;15.38;6.45;;;;;;;;;;5029208;28;20076;-65
2021/10/26 10:22:36;;;;;;;17.95;6.60;;;;;;;;;;5030156;28;20045;-62
2021/10/26 10:25:07;;;;;;;12.43;5.70;;;;;;;;;;5027556;28;20093;-62
2021/10/26 10:27:37;;;;;;;16.40;6.43;;;;;;;;;;5029889;28;20045;-62
2021/10/26 10:30:07;;;;;;;12.02;6.22;;;;;;;;;;5030763;28;20073;-66
2021/10/26 10:32:36;;;;;;;18.42;6.68;;;;;;;;;;5029154;28;20170;-64
2021/10/26 10:35:08;;;;;;;13.55;6.43;;;;;;;;;;5030990;28;20572;-63
2021/10/26 10:37:36;;;;;;;14.27;6.50;;;;;;;;;;5027651;28;20085;-66
2021/10/26 10:40:07;;;;;;;17.70;6.25;;;;;;;;;;5030253;28;20130;-62
2021/10/26 10:42:40;;;;;;;;;;;;;;;;;;5029816;28;20072;-66
2021/10/26 10:45:20;;;;;;;9.57;5.38;;;;;;;;;;5030747;28;19925;-66
2021/10/26 10:47:49;;;;;;;12.05;5.55;;;;;;;;;;5026608;28;20068;-64
2021/10/26 10:50:37;;;;;;;12.57;6.00;;;;;;;;;;5028128;28;20050;-63
2021/10/26 10:53:11;;;;;;;14.93;6.30;;;;;;;;;;5025356;28;20049;-65
2021/10/26 10:55:42;;;;;;;11.32;6.00;;;;;;;;;;5019793;28;20064;-66
2021/10/26 10:58:23;;;;;;;13.18;6.10;;;;;;;;;;5029637;28;20136;-66
2021/10/26 11:00:53;;;;;;;11.07;5.00;;;;;;;;;;5020815;28;20517;-63
2021/10/26 11:03:31;;;;;;;13.32;5.72;;;;;;;;;;5014814;28;20374;-63
2021/10/26 11:06:04;;;;;;;12.65;5.68;;;;;;;;;;5027035;28;20107;-64
2021/10/26 11:08:46;;;;;;;12.68;5.97;;;;;;;;;;5027639;28;20480;-65
2021/10/26 11:11:16;;;;;;;12.73;5.75;;;;;;;;;;5029418;28;20122;-62
2021/10/26 11:13:45;;;;;;;14.80;5.85;;;;;;;;;;5027375;28;20045;-62
2021/10/26 11:16:13;;;;;;;14.18;6.05;;;;;;;;;;5026760;28;20136;-63
2021/10/26 11:18:44;;;;;;;11.82;5.68;;;;;;;;;;5026891;28;20068;-62
2021/10/26 11:21:28;;;;;;;9.25;5.38;;;;;;;;;;5028813;28;20092;-62
2021/10/26 11:24:06;;;;;;;12.60;6.22;;;;;;;;;;5026437;28;20536;-63
2021/10/26 11:26:36;;;;;;;12.82;5.60;;;;;;;;;;5025146;28;20053;-66
2021/10/26 11:29:06;;;;;;;15.70;5.97;;;;;;;;;;5024202;28;20064;-63
2021/10/26 11:31:43;;;;;;;11.70;5.60;;;;;;;;;;5023551;28;20045;-63
2021/10/26 11:34:22;;;;;;;10.68;5.15;;;;;;;;;;5023263;28;20136;-63
2021/10/26 11:37:02;;;;;;;11.98;5.30;;;;;;;;;;5015393;28;20049;-63
2021/10/26 11:39:31;;;;;;;14.75;5.88;;;;;;;;;;5023752;28;20050;-66
2021/10/26 11:42:02;;;;;;;10.82;5.35;;;;;;;;;;5025353;28;20180;-63
2021/10/26 11:44:31;;;;;;;14.30;5.57;;;;;;;;;;5021457;28;20137;-68
2021/10/26 11:47:01;;;;;;;8.90;4.95;;;;;;;;;;5018707;28;20310;-66
2021/10/26 11:49:31;;;;;;;10.50;5.55;;;;;;;;;;5025050;28;20135;-67
2021/10/26 11:52:01;;;;;;;14.32;5.03;;;;;;;;;;5026113;28;20164;-65
2021/10/26 11:54:32;;;;;;;10.40;4.82;;;;;;;;;;5024129;28;20374;-64
2021/10/26 11:57:03;;;;;;;10.05;5.35;;;;;;;;;;5026150;28;20049;-62
2021/10/26 11:59:33;;;;;;;10.52;4.85;;;;;;;;;;5027162;28;20559;-65
2021/10/26 12:02:10;;;;;;;12.63;5.38;;;;;;;;;;5015295;28;20501;-63
2021/10/26 12:04:39;;;;;;;8.60;4.57;;;;;;;;;;5024961;28;20911;-63
2021/10/26 12:07:09;;;;;;;11.55;4.60;;;;;;;;;;5026683;28;20458;-65
2021/10/26 12:09:38;;;;;;;10.57;4.80;;;;;;;;;;5024594;28;20049;-67
2021/10/26 12:12:10;;;;;;;10.73;5.45;;;;;;;;;;5023850;28;20085;-64
2021/10/26 12:14:38;;;;;;;8.95;5.38;;;;;;;;;;5023982;28;20073;-62
2021/10/26 12:17:22;;;;;;;11.75;4.88;;;;;;;;;;5022644;28;20091;-62
2021/10/26 12:19:52;;;;;;;11.05;4.18;;;;;;;;;;5019592;28;20049;-63
2021/10/26 12:22:25;;;;;;;14.20;4.38;;;;;;;;;;5023658;28;20057;-64
2021/10/26 12:25:15;;;;;;;11.27;4.72;;;;;;;;;;5023964;28;20053;-63
2021/10/26 12:27:46;;;;;;;9.75;3.67;;;;;;;;;;5021207;28;20461;-63
2021/10/26 12:30:22;;;;;;;6.80;3.90;;;;;;;;;;5024961;28;20057;-65
2021/10/26 12:32:52;;;;;;;9.30;4.00;;;;;;;;;;5020940;28;20464;-65
2021/10/26 12:35:20;;;;;;;8.80;3.45;;;;;;;;;;5025588;28;20053;-63
2021/10/26 12:37:49;;;;;;;6.65;3.15;;;;;;;;;;5025754;28;20123;-63
2021/10/26 12:40:20;;;;;;;6.68;3.42;;;;;;;;;;5026019;28;20528;-63
2021/10/26 12:42:57;;;;;;;7.10;3.50;;;;;;;;;;5023382;28;20132;-65
2021/10/26 12:45:33;;;;;;;8.38;3.70;;;;;;;;;;5022257;28;20041;-63
2021/10/26 12:48:03;;;;;;;6.72;3.45;;;;;;;;;;5021638;28;20079;-66
2021/10/26 12:50:40;;;;;;;7.38;3.65;;;;;;;;;;5038394;28;20382;-66
2021/10/26 12:53:12;;;;;;;8.73;3.30;;;;;;;;;;5009839;28;20045;-68
2021/10/26 12:55:41;;;;;;;5.63;3.35;;;;;;;;;;5027572;28;20087;-62
2021/10/26 12:58:28;;;;;;;7.10;3.17;;;;;;;;;;5027653;28;20115;-67
2021/10/26 13:00:57;;;;;;;12.60;3.70;;;;;;;;;;5018366;28;20080;-63
2021/10/26 13:03:27;;;;;;;5.88;3.15;;;;;;;;;;5026160;28;20544;-62
2021/10/26 13:05:55;;;;;;;5.32;3.22;;;;;;;;;;5027048;28;20041;-62
2021/10/26 13:08:24;;;;;;;7.38;3.58;;;;;;;;;;5023644;28;20103;-63
2021/10/26 13:10:53;;;;;;;8.10;3.22;;;;;;;;;;5027106;28;20057;-62
2021/10/26 13:13:22;;;;;;;7.50;3.25;;;;;;;;;;5026045;28;20447;-62
2021/10/26 13:15:51;;;;;;;7.40;3.00;;;;;;;;;;5016470;28;20465;-62
2021/10/26 13:18:25;;;;;;;5.00;2.90;;;;;;;;;;5028535;28;20057;-65
2021/10/26 13:20:53;;;;;;;8.00;2.92;;;;;;;;;;5023844;28;20053;-65
2021/10/26 13:23:33;;;;;;;7.65;3.17;;;;;;;;;;5025622;28;20044;-63
2021/10/26 13:26:05;;;;;;;7.30;3.63;;;;;;;;;;5027163;28;20052;-64
2021/10/26 13:28:34;;;;;;;6.72;3.22;;;;;;;;;;5027762;28;20160;-62
2021/10/26 13:31:04;;;;;;;6.70;3.33;;;;;;;;;;5028090;28;20132;-62
2021/10/26 13:33:36;;;;;;;8.27;3.13;;;;;;;;;;5026957;28;20057;-66
2021/10/26 13:36:05;;;;;;;7.47;3.03;;;;;;;;;;5023525;28;20477;-63
2021/10/26 13:38:34;;;;;;;5.50;2.97;;;;;;;;;;5030657;28;20054;-63
2021/10/26 13:41:04;;;;;;;7.60;3.83;;;;;;;;;;5028634;28;20485;-62
2021/10/26 13:43:34;;;;;;;6.45;3.30;;;;;;;;;;5027623;28;20064;-66
2021/10/26 13:46:03;;;;;;;5.60;2.85;;;;;;;;;;5025941;28;20535;-64
2021/10/26 13:48:33;;;;;;;5.88;2.85;;;;;;;;;;5024931;28;20053;-63
2021/10/26 13:51:06;;;;;;;5.55;2.90;;;;;;;;;;5027726;28;20057;-63
2021/10/26 13:53:34;;;;;;;7.03;2.60;;;;;;;;;;5028178;28;20146;-62
2021/10/26 13:56:03;;;;;;;5.95;2.90;;;;;;;;;;5025788;28;20046;-71
2021/10/26 13:58:32;;;;;;;7.22;2.72;;;;;;;;;;5026668;28;20095;-66
2021/10/26 14:01:07;;;;;;;4.20;2.20;;;;;;;;;;5022121;28;20076;-65
2021/10/26 14:03:36;;;;;;;4.97;2.67;;;;;;;;;;5028113;28;20042;-65
2021/10/26 14:06:06;;;;;;;4.68;2.25;;;;;;;;;;5030340;28;20085;-63
2021/10/26 14:08:34;;;;;;;3.03;1.90;;;;;;;;;;5030926;28;20063;-63
2021/10/26 14:11:06;;;;;;;4.68;2.28;;;;;;;;;;5028835;28;20408;-63
2021/10/26 14:13:37;;;;;;;5.43;2.65;;;;;;;;;;5030998;28;20055;-63
2021/10/26 14:16:06;;;;;;;5.15;2.28;;;;;;;;;;5024910;28;20111;-63
2021/10/26 14:18:34;;;;;;;5.57;2.55;;;;;;;;;;5028901;28;20520;-64
2021/10/26 14:21:05;;;;;;;3.92;2.20;;;;;;;;;;5031563;28;20663;-62
2021/10/26 14:23:36;;;;;;;6.63;2.50;;;;;;;;;;5030395;28;20485;-62
2021/10/26 14:26:05;;;;;;;6.63;2.15;;;;;;;;;;5030488;28;20420;-64
2021/10/26 14:28:33;;;;;;;5.00;2.17;;;;;;;;;;5032007;28;20477;-63
2021/10/26 14:31:02;;;;;;;4.82;2.10;;;;;;;;;;5023940;28;20075;-65
2021/10/26 14:33:33;;;;;;;6.70;2.10;;;;;;;;;;5030176;28;20575;-63
2021/10/26 14:36:06;;;;;;;4.53;2.20;;;;;;;;;;5026214;28;20457;-63
2021/10/26 14:38:39;;;;;;;4.32;2.17;;;;;;;;;;5029477;28;20045;-67
2021/10/26 14:55:02;;;;;;;6.35;2.10;;;;;;;;;;5026999;28;20493;-63
2021/10/26 14:57:31;;;;;;;2.85;1.80;;;;;;;;;;5027769;28;20440;-63
2021/10/26 15:00:00;;;;;;;3.45;2.28;;;;;;;;;;5023654;28;20087;-63
2021/10/26 15:02:30;;;;;;;4.10;2.40;;;;;;;;;;5029896;28;20053;-62
2021/10/26 15:04:59;;;;;;;5.22;2.88;;;;;;;;;;5026699;28;20540;-64
2021/10/26 15:07:27;;;;;;;9.20;3.50;;;;;;;;;;5020178;28;20064;-63
2021/10/26 15:10:01;;;;;;;8.63;3.88;;;;;;;;;;5029600;28;20045;-63
2021/10/26 15:12:38;;;;;;;6.50;3.53;;;;;;;;;;5029054;28;20103;-69
2021/10/26 15:15:09;;;;;;;8.35;3.78;;;;;;;;;;5022904;28;20045;-63